Latest Weather Observations for Maria Island

IDT60801

Issued at 3:11 am EDT Tuesday 19 January 2021 (issued every 10 minutes, with the page automatically refreshed every 10 minutes)

About weather observations | Map of weather stations | Latest weather observations for TAS | Other Formats
Station Details ID: 092124 Name: MARIA ISLAND (POINT LESUEUR) Lat: -42.66 Lon: 148.02 Height: 28.0 m
Data from the previous 72 hours. | See also: Recent months at Maria Island
Date/Time
EDT
Temp
°C
App
Temp
°C
Dew
Point
°C
Rel
Hum
%
Delta-T
°C
Wind Press
QNH
hPa
Press
MSL
hPa
Rain since
9am
mm
Dir  Spd
km/h
Gust
km/h
Spd
kts
Gust
kts
19/03:00am 10.9 -1.2 4.4 64 2.9 SW 57 74 31 40 1011.8 1011.7 0.0
19/02:30am 10.8 -1.8 3.4 60 3.2 SSW 59 80 32 43 1011.6 1011.5 0.0
19/02:00am 11.0 -2.7 3.8 61 3.2 SW 65 85 35 46 1011.4 1011.3 0.0
19/01:39am 11.0 -0.7 3.5 60 3.3 SW 54 80 29 43 1011.4 1011.3 0.0
19/01:30am 11.2 -0.5 3.5 59 3.4 SW 54 72 29 39 1011.6 1011.5 0.0
19/01:21am 11.2 -0.1 3.5 59 3.4 SW 52 72 28 39 1011.3 1011.2 0.0
19/01:00am 10.9 0.9 4.4 64 2.9 SW 46 59 25 32 1011.3 1011.2 0.0
19/12:30am 11.1 -1.1 3.6 60 3.3 SW 57 80 31 43 1010.9 1010.8 0.0
19/12:00am 11.4 -0.8 3.7 59 3.4 SW 57 78 31 42 1010.6 1010.5 0.0
 
Date/Time
EDT
Temp
°C
App
Temp
°C
Dew
Point
°C
Rel
Hum
%
Delta-T
°C
Wind Press
QNH
hPa
Press
MSL
hPa
Rain since
9am
mm
Dir  Spd
km/h
Gust
km/h
Spd
kts
Gust
kts
18/11:30pm 11.6 0.2 2.9 55 3.8 SW 52 80 28 43 1010.5 1010.4 0.0
18/11:00pm 11.7 0.2 2.5 53 4.0 SW 52 76 28 41 1010.2 1010.1 0.0
18/10:30pm 12.0 0.7 3.3 55 3.8 SW 52 80 28 43 1009.9 1009.8 0.0
18/10:28pm 12.0 0.8 3.8 57 3.7 SW 52 80 28 43 1009.9 1009.8 0.0
18/10:18pm 12.1 1.3 4.1 58 3.6 SW 50 70 27 38 1010.0 1009.9 0.0
18/10:00pm 12.2 -1.7 2.6 52 4.2 SW 65 96 35 52 1009.4 1009.3 0.0
18/09:30pm 12.8 -1.0 3.2 52 4.3 SW 65 87 35 47 1008.2 1008.1 0.0
18/09:00pm 13.5 0.8 3.3 50 4.6 SW 59 78 32 42 1007.3 1007.2 0.0
18/08:30pm 13.8 0.3 2.7 47 4.9 SW 63 89 34 48 1005.9 1005.8 0.0
18/08:02pm 14.5 1.3 4.2 50 4.7 SW 63 83 34 45 1005.5 1005.4 0.0
18/08:00pm 14.5 0.7 3.3 47 5.1 SW 65 83 35 45 1005.1 1005.0 0.0
18/07:30pm 15.4 1.9 4.8 49 5.0 SW 65 85 35 46 1004.8 1004.7 0.0
18/07:00pm 16.1 2.5 4.2 45 5.6 SW 65 95 35 51 1003.5 1003.4 0.0
18/06:30pm 17.2 4.1 4.9 44 5.9 SW 63 83 34 45 1002.7 1002.6 0.0
18/06:04pm 18.3 6.0 7.1 48 5.6 SW 61 82 33 44 1001.9 1001.8 0.0
18/06:00pm 18.3 5.5 6.2 45 6.0 SW 63 82 34 44 1001.7 1001.6 0.0
18/05:58pm 18.3 5.8 6.2 45 6.0 SW 61 82 33 44 1001.3 1001.2 0.0
18/05:42pm 18.8 9.1 7.3 47 5.8 SSW 48 69 26 37 1001.5 1001.4 0.0
18/05:30pm 18.4 9.2 8.1 51 5.3 SSW 46 57 25 31 1001.7 1001.6 0.0
18/05:12pm 18.5 12.5 8.7 53 5.1 SW 30 69 16 37 1001.1 1001.0 0.0
18/05:03pm 20.2 14.3 7.6 44 6.5 SW 28 46 15 25 1001.4 1001.3 0.0
18/05:00pm 20.2 13.8 8.5 47 6.1 WSW 32 46 17 25 1001.5 1001.4 0.0
18/04:30pm 20.4 12.2 8.4 46 6.3 WSW 41 63 22 34 1001.6 1001.5 0.0
18/04:06pm 20.5 11.8 7.8 44 6.6 WSW 43 67 23 36 1001.3 1001.2 0.0
18/04:03pm 20.4 13.0 8.4 46 6.3 WSW 37 67 20 36 1000.8 1000.7 0.0
18/04:00pm 20.1 13.4 7.5 44 6.5 WSW 32 50 17 27 1001.4 1001.3 0.0
18/03:40pm 21.1 13.1 9.0 46 6.4 WSW 41 67 22 36 1000.6 1000.5 0.0
18/03:30pm 20.5 12.0 9.1 48 6.0 W 44 59 24 32 1000.9 1000.8 0.0
18/03:00pm 21.0 10.1 9.6 48 6.1 W 57 82 31 44 1000.3 1000.2 0.0
18/02:53pm 21.1 12.0 9.7 48 6.1 W 48 69 26 37 1000.3 1000.2 0.0
18/02:47pm 21.6 12.4 11.0 51 5.8 W 50 74 27 40 1000.6 1000.5 0.0
18/02:40pm 21.4 9.8 9.9 48 6.2 W 61 82 33 44 1000.2 1000.1 0.0
18/02:34pm 21.1 10.4 9.7 48 6.1 W 56 82 30 44 1000.0 999.9 0.0
18/02:30pm 21.1 11.7 10.3 50 5.9 W 50 72 27 39 1000.5 1000.4 0.0
18/02:00pm 20.0 12.1 9.3 50 5.7 W 41 63 22 34 1001.2 1001.1 0.0
18/01:30pm 19.3 12.3 9.8 54 5.1 W 37 56 20 30 1002.0 1001.9 0.0
18/01:03pm 19.0 13.2 9.5 54 5.0 W 30 52 16 28 1002.5 1002.4 0.0
18/01:00pm 18.9 12.8 9.9 56 4.8 W 32 50 17 27 1002.7 1002.6 0.0
18/12:30pm 19.2 14.2 9.7 54 5.1 W 26 39 14 21 1003.0 1002.9 0.0
18/12:00pm 18.9 12.9 10.2 57 4.7 WNW 32 44 17 24 1003.0 1002.9 0.0
18/11:30am 18.8 10.0 9.6 55 4.9 W 46 67 25 36 1003.1 1003.0 0.0
18/11:00am 17.9 10.0 9.3 57 4.5 WNW 41 63 22 34 1002.7 1002.6 0.0
18/10:59am 18.3 10.9 9.9 58 4.5 WNW 39 57 21 31 1003.0 1002.9 0.0
18/10:30am 17.8 10.4 9.7 59 4.3 WNW 39 54 21 29 1003.4 1003.3 0.0
18/10:00am 17.5 9.6 9.4 59 4.3 WNW 41 54 22 29 1003.8 1003.7 0.0
18/09:30am 17.0 9.4 9.2 60 4.1 WNW 39 48 21 26 1004.1 1004.0 0.0
18/09:00am 16.8 10.1 9.5 62 3.8 WNW 35 44 19 24 1004.7 1004.6 0.0
18/08:30am 17.2 11.3 10.3 64 3.7 WNW 32 41 17 22 1004.9 1004.8 0.0
18/08:00am 16.5 13.1 10.6 68 3.2 NW 19 30 10 16 1005.0 1004.9 0.0
18/07:30am 16.3 12.0 10.8 70 2.9 WNW 24 32 13 17 1005.0 1004.9 0.0
18/07:00am 16.2 10.6 10.3 68 3.1 WNW 30 37 16 20 1004.5 1004.4 0.0
18/06:30am 16.1 10.2 10.4 69 3.0 WNW 32 39 17 21 1004.4 1004.3 0.0
18/06:00am 16.1 9.9 10.2 68 3.1 WNW 33 41 18 22 1004.4 1004.3 0.0
18/05:30am 16.2 11.1 10.5 69 3.0 NW 28 33 15 18 1004.1 1004.0 0.0
18/05:00am 16.0 11.9 10.1 68 3.1 WNW 22 32 12 17 1004.1 1004.0 0.0
18/04:30am 16.1 12.4 10.2 68 3.1 NW 20 24 11 13 1004.3 1004.2 0.0
18/04:00am 15.9 12.3 10.0 68 3.1 NW 19 24 10 13 1004.2 1004.1 0.0
18/03:30am 16.0 13.1 9.7 66 3.3 NNW 15 20 8 11 1004.4 1004.3 0.0
18/03:00am 15.9 12.3 9.8 67 3.2 WNW 19 24 10 13 1004.5 1004.4 0.0
18/02:30am 16.0 12.7 9.4 65 3.4 NW 17 24 9 13 1004.7 1004.6 0.0
18/02:00am 16.0 13.4 9.4 65 3.4 NW 13 20 7 11 1004.8 1004.7 0.0
18/01:30am 16.0 13.3 9.0 63 3.6 WNW 13 17 7 9 1005.3 1005.2 0.0
18/01:00am 16.0 13.2 8.7 62 3.7 NW 13 17 7 9 1005.2 1005.1 0.0
18/12:30am 15.9 12.4 8.6 62 3.7 W 17 24 9 13 1005.7 1005.6 0.0
18/12:00am 15.8 11.8 8.3 61 3.8 W 19 24 10 13 1005.8 1005.7 0.0
 
Date/Time
EDT
Temp
°C
App
Temp
°C
Dew
Point
°C
Rel
Hum
%
Delta-T
°C
Wind Press
QNH
hPa
Press
MSL
hPa
Rain since
9am
mm
Dir  Spd
km/h
Gust
km/h
Spd
kts
Gust
kts
17/11:30pm 16.2 11.3 8.4 60 4.0 W 24 32 13 17 1005.5 1005.4 0.0
17/11:00pm 16.2 12.2 8.2 59 4.1 W 19 26 10 14 1005.5 1005.4 0.0
17/10:30pm 16.5 10.6 9.0 61 3.9 WSW 30 39 16 21 1005.7 1005.6 0.0
17/10:00pm 16.8 12.0 8.8 59 4.1 WSW 24 33 13 18 1005.8 1005.7 0.0
17/09:30pm 16.9 13.0 8.6 58 4.3 W 19 30 10 16 1005.4 1005.3 0.0
17/09:00pm 17.3 11.8 9.0 58 4.3 W 28 39 15 21 1005.1 1005.0 0.0
17/08:30pm 17.7 12.2 9.1 57 4.5 W 28 57 15 31 1004.6 1004.5 0.0
17/08:00pm 18.3 13.3 9.6 57 4.6 W 26 35 14 19 1004.6 1004.5 0.0
17/07:31pm 18.7 11.0 10.0 57 4.6 W 41 59 22 32 1004.1 1004.0 0.0
17/07:30pm 18.7 10.5 9.8 56 4.7 W 43 59 23 32 1004.1 1004.0 0.0
17/07:04pm 19.0 12.4 10.0 56 4.8 WSW 35 63 19 34 1003.6 1003.5 0.0
17/07:00pm 19.1 12.8 9.6 54 5.1 WSW 33 48 18 26 1003.6 1003.5 0.0
17/06:30pm 18.8 9.9 10.6 59 4.4 WSW 48 70 26 38 1003.8 1003.7 0.0
17/06:00pm 19.0 10.6 9.5 54 5.0 W 44 72 24 39 1003.7 1003.6 0.0
17/05:30pm 19.4 11.9 9.6 53 5.2 W 39 65 21 35 1003.9 1003.8 0.0
17/05:00pm 20.1 12.7 9.7 51 5.6 W 39 57 21 31 1004.1 1004.0 0.0
17/04:35pm 20.3 13.6 9.8 51 5.6 W 35 59 19 32 1004.3 1004.2 0.0
17/04:30pm 19.8 13.7 9.7 52 5.4 W 32 43 17 23 1004.6 1004.5 0.0
17/04:00pm 19.1 12.9 9.3 53 5.2 W 32 41 17 22 1004.8 1004.7 0.0
17/03:51pm 18.4 12.6 8.1 51 5.3 W 28 50 15 27 1004.9 1004.8 0.0
17/03:30pm 17.6 13.1 8.7 56 4.6 NW 22 28 12 15 1005.2 1005.1 0.0
17/03:00pm 19.3 13.5 9.5 53 5.2 WNW 30 43 16 23 1005.4 1005.3 0.0
17/02:30pm 18.6 12.1 8.3 51 5.3 WNW 32 39 17 21 1005.7 1005.6 0.0
17/02:00pm 17.6 11.0 8.5 55 4.7 WNW 33 43 18 23 1006.2 1006.1 0.0
17/01:30pm 17.3 10.8 8.2 55 4.6 WNW 32 48 17 26 1006.2 1006.1 0.0
17/01:00pm 16.3 9.7 7.8 57 4.3 W 32 43 17 23 1007.1 1007.0 0.0
17/12:50pm 16.1 9.7 7.1 55 4.5 WSW 30 48 16 26 1007.2 1007.1 0.0
17/12:30pm 15.8 7.7 6.8 55 4.4 W 39 52 21 28 1007.1 1007.0 0.0
17/12:00pm 16.9 10.2 5.8 48 5.4 W 30 39 16 21 1007.5 1007.4 0.0
17/11:30am 15.1 9.3 6.1 55 4.3 W 26 41 14 22 1007.8 1007.7 0.0
17/11:00am 14.4 7.9 6.3 58 3.9 W 30 43 16 23 1007.9 1007.8 0.0
17/10:30am 14.1 7.1 6.0 58 3.9 WSW 32 46 17 25 1008.3 1008.2 0.0
17/10:00am 13.8 9.1 5.2 56 4.0 W 19 28 10 15 1008.2 1008.1 0.0
17/09:30am 14.2 10.9 6.3 59 3.8 NW 13 22 7 12 1008.5 1008.4 0.0
17/09:00am 13.1 8.5 5.5 60 3.6 NW 19 26 10 14 1008.8 1008.7 0.8
17/08:30am 12.6 8.0 5.5 62 3.3 NW 19 24 10 13 1008.9 1008.8 0.8
17/08:00am 11.6 6.7 4.1 60 3.4 WNW 19 28 10 15 1008.8 1008.7 0.6
17/07:30am 11.1 7.0 4.1 62 3.1 WNW 15 19 8 10 1008.8 1008.7 0.6
17/07:00am 10.9 6.7 3.9 62 3.1 WNW 15 20 8 11 1008.8 1008.7 0.6
17/06:30am 10.7 5.5 3.7 62 3.1 WNW 20 26 11 14 1008.6 1008.5 0.6
17/06:00am 10.1 5.9 4.0 66 2.7 W 15 19 8 10 1008.2 1008.1 0.6
17/05:30am 10.4 5.3 4.1 65 2.8 W 20 26 11 14 1008.1 1008.0 0.6
17/05:00am 10.1 5.9 3.6 64 2.9 W 15 22 8 12 1008.1 1008.0 0.6
17/04:30am 10.2 5.1 3.3 62 3.0 WNW 19 24 10 13 1008.0 1007.9 0.6
17/04:00am 10.4 4.8 3.2 61 3.1 W 22 32 12 17 1007.9 1007.8 0.6
17/03:30am 10.7 3.9 3.0 59 3.3 WSW 28 43 15 23 1007.6 1007.5 0.6
17/03:00am 10.6 5.0 3.6 62 3.1 WSW 22 33 12 18 1007.7 1007.6 0.6
17/02:30am 10.8 3.4 3.8 62 3.1 WSW 32 43 17 23 1007.3 1007.2 0.6
17/02:00am 10.7 4.4 3.7 62 3.1 WSW 26 35 14 19 1007.5 1007.4 0.6
17/01:30am 10.7 3.7 4.0 63 3.0 WSW 30 39 16 21 1007.3 1007.2 0.6
17/01:00am 10.7 4.4 3.5 61 3.2 WSW 26 41 14 22 1007.1 1007.0 0.6
17/12:54am 10.7 4.4 3.7 62 3.1 WSW 26 44 14 24 1007.2 1007.1 0.6
17/12:30am 11.1 2.8 4.3 63 3.1 SW 37 48 20 26 1006.9 1006.8 0.6
17/12:00am 11.1 1.2 4.6 64 2.9 WSW 46 59 25 32 1006.4 1006.3 0.6
 
Date/Time
EDT
Temp
°C
App
Temp
°C
Dew
Point
°C
Rel
Hum
%
Delta-T
°C
Wind Press
QNH
hPa
Press
MSL
hPa
Rain since
9am
mm
Dir  Spd
km/h
Gust
km/h
Spd
kts
Gust
kts
16/11:50pm 11.2 1.3 4.7 64 2.9 WSW 46 65 25 35 1006.3 1006.2 0.6
16/11:30pm 11.1 1.6 4.1 62 3.1 WSW 43 54 23 29 1006.5 1006.4 0.6
16/11:09pm 11.1 1.7 4.6 64 2.9 WSW 43 61 23 33 1006.4 1006.3 0.6
16/11:00pm 11.2 1.6 4.4 63 3.1 WSW 44 57 24 31 1006.3 1006.2 0.6
16/10:30pm 11.5 1.5 4.5 62 3.2 SW 46 61 25 33 1006.4 1006.3 0.6
16/10:00pm 11.8 0.8 4.8 62 3.2 SW 52 67 28 36 1006.2 1006.1 0.6
16/09:38pm 11.8 0.8 5.0 63 3.1 SW 52 70 28 38 1005.9 1005.8 0.6
16/09:30pm 11.9 1.0 5.3 64 3.0 SW 52 65 28 35 1005.7 1005.6 0.6
16/09:07pm 12.1 2.5 4.6 60 3.4 SW 44 69 24 37 1005.4 1005.3 0.6
16/09:00pm 12.1 2.5 4.3 59 3.5 SW 44 57 24 31 1005.5 1005.4 0.6
16/08:30pm 12.4 2.0 6.0 65 3.0 SW 50 63 27 34 1005.0 1004.9 0.6
16/08:05pm 11.9 3.4 7.0 72 2.3 SW 41 61 22 33 1004.7 1004.6 0.6
16/08:00pm 11.7 3.0 7.8 77 1.9 SW 43 61 23 33 1004.8 1004.7 0.6
16/07:57pm 11.6 1.5 7.5 76 2.0 SW 50 78 27 42 1004.8 1004.7 0.6
16/07:47pm 12.4 1.0 6.9 69 2.6 SW 56 78 30 42 1004.3 1004.2 0.6
16/07:30pm 13.2 2.5 6.5 64 3.2 SSW 52 65 28 35 1003.8 1003.7 0.6
16/07:00pm 14.1 4.2 6.5 60 3.7 SW 48 57 26 31 1003.1 1003.0 0.6
16/06:30pm 14.1 3.1 6.7 61 3.6 SW 54 65 29 35 1002.4 1002.3 0.6
16/06:00pm 13.2 3.6 9.3 77 2.0 SSW 50 70 27 38 1002.1 1002.0 0.6
16/05:55pm 12.7 2.1 9.9 83 1.4 SSW 56 70 30 38 1002.3 1002.2 0.6
16/05:38pm 14.0 3.5 7.5 65 3.2 SSW 52 78 28 42 1001.7 1001.6 0.6
16/05:36pm 14.1 4.5 8.1 67 3.0 SSW 48 76 26 41 1001.8 1001.7 0.6
16/05:30pm 14.5 4.5 9.5 72 2.6 SSW 52 61 28 33 1001.7 1001.6 0.6
16/05:02pm 15.2 6.5 10.0 71 2.7 SSW 46 72 25 39 1001.2 1001.1 0.6
16/05:00pm 15.6 7.6 10.4 71 2.8 SSW 43 57 23 31 1001.2 1001.1 0.6
16/04:30pm 13.6 4.9 12.7 94 0.5 SSW 50 63 27 34 1001.0 1000.9 0.6
16/04:21pm 13.9 4.3 10.9 82 1.6 SSW 52 63 28 34 1001.0 1000.9 0.6
16/04:00pm 13.9 7.4 13.0 94 0.5 SSW 39 46 21 25 1001.0 1000.9 0.6
16/03:30pm 12.9 5.2 11.5 91 0.7 SW 43 65 23 35 1000.7 1000.6 0.2
16/03:24pm 15.0 9.1 10.6 75 2.3 WSW 32 48 17 26 1000.8 1000.7 0.2
16/03:13pm 15.1 9.9 10.1 72 2.6 W 28 44 15 24 1000.4 1000.3 0.2
16/03:00pm 16.6 12.9 10.0 65 3.5 W 20 30 11 16 1000.5 1000.4 0.2
16/02:30pm 16.6 8.7 7.8 56 4.4 WSW 39 50 21 27 1000.3 1000.2 0.2
16/02:00pm 17.4 11.7 8.5 56 4.6 W 28 39 15 21 1000.2 1000.1 0.2
16/01:30pm 17.8 13.3 7.0 49 5.4 W 20 32 11 17 1000.8 1000.7 0.2
16/01:00pm 17.8 12.6 8.9 56 4.6 WSW 26 35 14 19 1001.1 1001.0 0.2
16/12:30pm 17.0 10.4 7.9 55 4.6 WSW 32 41 17 22 1001.5 1001.4 0.2
16/12:00pm 16.8 12.0 9.0 60 4.1 SW 24 33 13 18 1002.1 1002.0 0.0
16/11:30am 15.3 11.2 8.5 64 3.4 SW 20 32 11 17 1002.5 1002.4 0.0
16/11:00am 14.5 8.9 8.7 68 3.0 SW 28 37 15 20 1002.5 1002.4 0.0
16/10:30am 15.4 10.0 9.5 68 3.1 WSW 28 41 15 22 1002.7 1002.6 0.0
16/10:00am 14.1 7.8 8.9 71 2.6 WSW 32 39 17 21 1003.0 1002.9 0.0
16/09:41am 14.3 8.4 9.1 71 2.6 SW 30 39 16 21 1002.9 1002.8 0.0
16/09:30am 14.7 7.5 9.1 69 2.9 SW 37 48 20 26 1003.0 1002.9 0.0
16/09:00am 14.9 8.5 9.3 69 2.9 SW 33 41 18 22 1002.9 1002.8 11.6
16/08:30am 14.0 9.2 8.8 71 2.6 SW 24 35 13 19 1003.1 1003.0 11.6
16/08:00am 14.0 8.8 8.8 71 2.6 SW 26 37 14 20 1002.9 1002.8 11.6
16/07:30am 13.7 8.5 9.0 73 2.4 SW 26 37 14 20 1002.9 1002.8 11.6
16/07:00am 13.1 9.6 8.8 75 2.2 WSW 17 22 9 12 1002.7 1002.6 11.6
16/06:30am 12.8 8.9 8.7 76 2.1 WSW 19 22 10 12 1002.6 1002.5 11.6
16/06:00am 13.1 8.0 9.2 77 2.0 SW 26 32 14 17 1002.5 1002.4 11.6
16/05:30am 13.1 6.6 9.0 76 2.1 SW 33 44 18 24 1002.2 1002.1 11.6
16/05:00am 13.1 6.9 9.4 78 1.9 SW 32 43 17 23 1002.1 1002.0 11.6
16/04:30am 13.0 8.0 9.6 80 1.7 SW 26 33 14 18 1002.3 1002.2 11.6
16/04:00am 12.9 6.7 9.9 82 1.5 SW 33 41 18 22 1002.2 1002.1 11.6
16/03:30am 12.9 5.2 10.1 83 1.4 SW 41 48 22 26 1002.2 1002.1 11.6

Other formats

Comma delimited format used in spreadsheet applications
http://www.bom.gov.au/fwo/IDT60801/IDT60801.95988.axf

JavaScript Object Notation format (JSON) in row-major order
http://www.bom.gov.au/fwo/IDT60801/IDT60801.95988.json

Data quality

Most of these data are generated automatically and are frequently updated. Quality checks on data are not normally performed. It is possible for incorrect values to appear. Refer to information at About Latest Weather Observations and please check the disclaimer before using these data.